NCAR-RAP Real-Time Weather Data

Output produced by METARs form (06 May 2021  16:50 UTC)
found at http://weather.rap.ucar.edu/surface/
 
KLFK 061553Z AUTO 03005KT 10SM CLR 24/14 A3021 RMK AO2 SLP227 T02390139
KLFK 061453Z AUTO 03006KT 10SM CLR 22/14 A3022 RMK AO2 SLP230 T02220144 51011
KLFK 061353Z AUTO 09003KT 10SM CLR 20/16 A3020 RMK AO2 SLP224 T02000161
KLFK 061253Z AUTO 00000KT 10SM CLR 17/15 A3021 RMK AO2 SLP227 T01670150
KLFK 061153Z AUTO 00000KT 10SM CLR 14/13 A3019 RMK AO2 SLP218 T01390133 10156 20133 53013
KLFK 061053Z AUTO 00000KT 10SM CLR 14/14 A3016 RMK AO2 SLP210 T01440139
KLFK 060953Z AUTO 00000KT 10SM CLR 14/14 A3016 RMK AO2 SLP210 T01440139
KLFK 060853Z AUTO 00000KT 10SM CLR 16/14 A3015 RMK AO2 SLP206 T01560139 53008
KLFK 060753Z AUTO 00000KT 10SM CLR 16/14 A3013 RMK AO2 SLP199 T01560144
KLFK 060653Z AUTO 00000KT 10SM CLR 15/14 A3013 RMK AO2 SLP199 T01500144
KLFK 060553Z AUTO 00000KT 10SM CLR 16/14 A3012 RMK AO2 SLP198 T01560144 10250 20156 402610133 51008
KLFK 060453Z AUTO 00000KT 10SM CLR 17/15 A3012 RMK AO2 SLP196 T01670150
KLFK 060353Z AUTO 00000KT 10SM CLR 18/16 A3011 RMK AO2 SLP193 T01780156
KLFK 060253Z AUTO 06003KT 10SM CLR 18/16 A3010 RMK AO2 SLP190 T01780156 53015
KLFK 060153Z AUTO 00000KT 10SM CLR 19/16 A3007 RMK AO2 SLP181 T01940156